Mc Rae, Arkansas
Current Conditions -  °F | °C
As of 6:56 PM on Friday 19 Dec 2014 (Local Time) from KSRC Reporting Station
Overcast Overcast  
Wind Chill: 36°   Ceiling: 1500
Heat Index: 40°   Visibility: 9mi
Dew Point: 36°   Wind: 6mph
Humidity: 86%   Direction: 30°NNE
Pressure: 30.25"   Gusts: NA
Location:  35.1012°N, 91.8143°W
Report Text: KSRC 200056Z AUTO 03005KT 9SM BKN015 OVC055 04/02 A3025 RMK AO2 SLP252 T00440022 TSNO
Loading
Personal Weather Stations






























Interactive Weather Map New forecast layout! Learn more

10-Day Weather Forecast

Advertisements
Track Severe Weather on mobile